createdAt,value
2019-01-29T00:00:33.774Z,29.26
2019-01-29T00:03:01.297Z,29.28
2019-01-29T00:05:28.825Z,29.28
2019-01-29T00:07:56.378Z,29.23
2019-01-29T00:10:23.888Z,29.21
2019-01-29T00:12:51.472Z,29.23
2019-01-29T00:15:18.977Z,29.22
2019-01-29T00:17:46.512Z,29.21
2019-01-29T00:20:14.550Z,29.17
2019-01-29T00:22:42.093Z,29.18
2019-01-29T00:25:09.858Z,29.08
2019-01-29T00:27:37.365Z,29.18
2019-01-29T00:30:11.683Z,29.09
2019-01-29T00:32:39.181Z,29.13
2019-01-29T00:35:06.690Z,29.13
2019-01-29T00:37:34.213Z,29.06
2019-01-29T00:40:01.771Z,29.02
2019-01-29T00:42:29.267Z,29.05
2019-01-29T00:44:56.793Z,29.02
2019-01-29T00:47:24.317Z,29.02
2019-01-29T00:49:51.840Z,29.05
2019-01-29T00:52:19.363Z,29.08
2019-01-29T00:54:46.867Z,29.09
2019-01-29T00:57:14.389Z,29.05
2019-01-29T00:59:41.897Z,29.01
2019-01-29T01:02:09.391Z,29.05
2019-01-29T01:04:36.939Z,29.04
2019-01-29T01:07:04.438Z,29.01
2019-01-29T01:09:31.974Z,29.03
2019-01-29T01:11:59.491Z,29.04
2019-01-29T01:14:27.011Z,29.02
2019-01-29T01:16:54.527Z,29.04
2019-01-29T01:19:22.043Z,29.02
2019-01-29T01:21:49.562Z,29.01
2019-01-29T01:24:17.071Z,29.00
2019-01-29T01:26:44.579Z,28.98
2019-01-29T01:29:12.109Z,29.00
2019-01-29T01:31:39.625Z,28.99
2019-01-29T01:34:07.120Z,29.00
2019-01-29T01:36:34.655Z,29.01
2019-01-29T01:39:02.153Z,28.99
2019-01-29T01:41:29.644Z,29.00
2019-01-29T01:43:57.171Z,28.97
2019-01-29T01:46:24.678Z,28.96
2019-01-29T01:48:52.218Z,28.99
2019-01-29T01:51:19.722Z,28.99
2019-01-29T01:53:47.232Z,28.97
2019-01-29T01:56:14.742Z,28.95
2019-01-29T01:58:42.259Z,28.96
2019-01-29T02:01:09.757Z,28.96
2019-01-29T02:03:37.276Z,28.92
2019-01-29T02:06:04.799Z,28.93
2019-01-29T02:08:32.310Z,28.95
2019-01-29T02:10:59.789Z,28.94
2019-01-29T02:13:27.306Z,28.91
2019-01-29T02:15:54.833Z,28.90
2019-01-29T02:18:22.332Z,28.90
2019-01-29T02:20:49.843Z,28.91
2019-01-29T02:23:17.340Z,28.88
2019-01-29T02:25:44.868Z,28.88
2019-01-29T02:28:12.344Z,28.88
2019-01-29T02:30:39.857Z,28.88
2019-01-29T02:33:07.377Z,28.89
2019-01-29T02:35:34.907Z,28.88
2019-01-29T02:38:02.447Z,28.92
2019-01-29T02:40:29.978Z,28.92
2019-01-29T02:42:57.538Z,28.90
2019-01-29T02:45:25.047Z,28.90
2019-01-29T02:47:52.576Z,28.90
2019-01-29T02:50:20.065Z,28.89
2019-01-29T02:52:47.618Z,28.93
2019-01-29T02:55:15.655Z,28.89
2019-01-29T02:57:43.169Z,28.85
2019-01-29T03:00:12.310Z,28.84
2019-01-29T03:02:39.854Z,28.84
2019-01-29T03:05:08.815Z,28.84
2019-01-29T03:07:36.316Z,28.83
2019-01-29T03:10:05.499Z,28.86
2019-01-29T03:12:32.992Z,28.87
2019-01-29T03:15:00.534Z,28.79
2019-01-29T03:17:28.089Z,28.83
2019-01-29T03:19:55.606Z,28.84
2019-01-29T03:22:23.114Z,28.82
2019-01-29T03:24:50.614Z,28.87
2019-01-29T03:27:18.124Z,28.83
2019-01-29T03:29:45.656Z,28.83
2019-01-29T03:32:14.086Z,28.86
2019-01-29T03:34:41.610Z,28.83
2019-01-29T03:37:09.099Z,28.84
2019-01-29T03:39:36.609Z,28.83
2019-01-29T03:42:04.130Z,28.82
2019-01-29T03:44:31.625Z,28.83
2019-01-29T03:46:59.139Z,28.81
2019-01-29T03:49:26.659Z,28.79
2019-01-29T03:51:54.152Z,28.78
2019-01-29T03:54:21.666Z,28.77
2019-01-29T03:56:49.190Z,28.79
2019-01-29T03:59:16.682Z,28.77
2019-01-29T04:01:44.203Z,28.79
2019-01-29T04:04:11.687Z,28.87
2019-01-29T04:06:39.227Z,28.93
2019-01-29T04:09:07.580Z,28.89
2019-01-29T04:11:35.111Z,28.90
2019-01-29T04:14:02.609Z,28.84
2019-01-29T04:16:30.114Z,28.89
2019-01-29T04:18:57.622Z,28.89
2019-01-29T04:21:25.158Z,28.91
2019-01-29T04:23:52.644Z,28.89
2019-01-29T04:26:20.188Z,28.92
2019-01-29T04:28:47.687Z,28.93
2019-01-29T04:31:15.178Z,28.87
2019-01-29T04:33:42.689Z,28.90
2019-01-29T04:36:10.237Z,28.97
2019-01-29T04:38:37.744Z,28.93
2019-01-29T04:41:05.250Z,28.87
2019-01-29T04:43:32.785Z,28.89
2019-01-29T04:46:00.274Z,28.96
2019-01-29T04:48:27.805Z,28.92
2019-01-29T04:50:55.329Z,28.91
2019-01-29T04:53:22.826Z,28.95
2019-01-29T04:55:50.338Z,28.94
2019-01-29T04:58:17.824Z,28.91
2019-01-29T05:00:45.359Z,28.92
2019-01-29T05:03:12.875Z,28.90
2019-01-29T05:05:40.377Z,28.89
2019-01-29T05:08:07.920Z,28.91
2019-01-29T05:10:35.447Z,28.89
2019-01-29T05:13:02.983Z,28.91
2019-01-29T05:15:30.567Z,28.89
2019-01-29T05:17:58.111Z,28.93
2019-01-29T05:20:25.619Z,28.88
2019-01-29T05:22:53.144Z,28.88
2019-01-29T05:25:20.679Z,28.91
2019-01-29T05:27:48.182Z,28.87
2019-01-29T05:30:17.323Z,28.91
2019-01-29T05:32:44.861Z,28.89
2019-01-29T05:35:12.387Z,28.89
2019-01-29T05:37:39.881Z,28.86
2019-01-29T05:40:08.994Z,28.87
2019-01-29T05:42:36.517Z,28.87
2019-01-29T05:45:05.306Z,28.87
2019-01-29T05:47:32.832Z,28.87
2019-01-29T05:50:00.352Z,28.93
2019-01-29T05:52:27.893Z,28.87
2019-01-29T05:54:55.407Z,28.92
2019-01-29T05:57:22.917Z,28.90
2019-01-29T05:59:50.433Z,28.88
2019-01-29T06:02:17.943Z,28.90
2019-01-29T06:04:45.472Z,28.94
2019-01-29T06:07:12.969Z,28.91
2019-01-29T06:09:40.511Z,28.92
2019-01-29T06:12:08.041Z,28.90
2019-01-29T06:14:35.552Z,28.87
2019-01-29T06:17:03.057Z,28.84
2019-01-29T06:19:30.583Z,28.94
2019-01-29T06:21:58.107Z,28.90
2019-01-29T06:24:26.194Z,28.83
2019-01-29T06:26:53.921Z,28.93
2019-01-29T06:29:21.437Z,28.93
2019-01-29T06:31:48.983Z,28.83
2019-01-29T06:34:16.487Z,28.90
2019-01-29T06:36:44.019Z,28.85
2019-01-29T06:39:11.515Z,28.80
2019-01-29T06:41:39.037Z,28.88
2019-01-29T06:44:06.577Z,28.82
2019-01-29T06:46:34.090Z,28.79
2019-01-29T06:49:01.595Z,28.82
2019-01-29T06:51:29.121Z,28.89
2019-01-29T06:53:56.647Z,28.87
2019-01-29T06:56:24.240Z,28.84
2019-01-29T06:58:52.020Z,28.83
2019-01-29T07:01:19.519Z,28.89
2019-01-29T07:03:47.021Z,28.93
2019-01-29T07:06:14.542Z,28.90
2019-01-29T07:08:42.039Z,28.89
2019-01-29T07:11:09.593Z,28.85
2019-01-29T07:13:37.101Z,28.93
2019-01-29T07:16:06.304Z,28.95
2019-01-29T07:18:35.459Z,28.95
2019-01-29T07:21:04.625Z,29.01
2019-01-29T07:23:32.148Z,28.91
2019-01-29T07:25:59.657Z,28.90
2019-01-29T07:28:27.191Z,28.96
2019-01-29T07:30:54.706Z,28.88
2019-01-29T07:33:22.231Z,28.93
2019-01-29T07:35:49.727Z,28.90
2019-01-29T07:38:17.256Z,28.89
2019-01-29T07:40:44.751Z,28.93
2019-01-29T07:43:12.276Z,28.91
2019-01-29T07:45:39.768Z,29.03
2019-01-29T07:48:07.299Z,28.98
2019-01-29T07:50:34.889Z,28.92
2019-01-29T07:53:02.387Z,28.95
2019-01-29T07:55:29.897Z,28.95
2019-01-29T07:57:57.398Z,28.94
2019-01-29T08:00:24.915Z,28.99
2019-01-29T08:02:52.447Z,28.95
2019-01-29T08:05:20.737Z,28.99
2019-01-29T08:07:48.446Z,29.10
2019-01-29T08:10:16.638Z,29.01
2019-01-29T08:12:44.157Z,29.05
2019-01-29T08:15:15.611Z,28.82
2019-01-29T08:17:43.105Z,28.89
2019-01-29T08:20:11.258Z,28.87
2019-01-29T08:22:38.765Z,28.81
2019-01-29T08:25:07.847Z,28.78
2019-01-29T08:27:35.373Z,28.84
2019-01-29T08:30:03.453Z,28.86
2019-01-29T08:32:30.975Z,28.85
2019-01-29T08:34:58.487Z,28.82
2019-01-29T08:37:26.003Z,28.99
2019-01-29T08:39:53.500Z,28.91
2019-01-29T08:42:21.024Z,28.89
2019-01-29T08:44:48.527Z,28.93
2019-01-29T08:47:16.036Z,29.01
2019-01-29T08:49:43.581Z,28.87
2019-01-29T08:52:11.686Z,28.86
2019-01-29T08:54:39.290Z,28.88
2019-01-29T08:57:06.806Z,28.90
2019-01-29T08:59:34.297Z,28.97
2019-01-29T09:02:01.801Z,29.07
2019-01-29T09:04:29.328Z,29.15
2019-01-29T09:06:56.832Z,29.33
2019-01-29T09:09:24.347Z,29.14
2019-01-29T09:11:51.860Z,29.11
2019-01-29T09:14:19.374Z,29.31
2019-01-29T09:16:46.884Z,29.34
2019-01-29T09:19:14.411Z,29.32
2019-01-29T09:21:41.897Z,29.62
2019-01-29T09:24:09.412Z,29.37
2019-01-29T09:26:36.904Z,29.19
2019-01-29T09:29:04.439Z,29.23
2019-01-29T09:31:31.942Z,29.53
2019-01-29T09:33:59.544Z,29.78
2019-01-29T09:36:27.084Z,29.99
2019-01-29T09:38:54.603Z,29.81
2019-01-29T09:41:22.094Z,29.79
2019-01-29T09:43:49.645Z,29.82
2019-01-29T09:46:17.180Z,29.66
2019-01-29T09:48:44.665Z,30.16
2019-01-29T09:51:12.196Z,29.64
2019-01-29T09:53:39.721Z,29.48
2019-01-29T09:56:07.238Z,29.54
2019-01-29T09:58:34.730Z,29.67
2019-01-29T10:01:02.252Z,29.37
2019-01-29T10:03:29.758Z,29.44
2019-01-29T10:05:57.281Z,29.22
2019-01-29T10:08:24.771Z,29.28
2019-01-29T10:10:52.300Z,29.51
2019-01-29T10:13:19.869Z,29.48
2019-01-29T10:15:47.424Z,29.63
2019-01-29T10:18:14.953Z,29.34
2019-01-29T10:20:42.454Z,29.36
2019-01-29T10:23:09.981Z,29.44
2019-01-29T10:25:38.245Z,29.29
2019-01-29T10:28:05.762Z,29.27
2019-01-29T10:30:33.288Z,29.38
2019-01-29T10:33:00.794Z,29.35
2019-01-29T10:35:28.776Z,29.32
2019-01-29T10:37:56.271Z,29.26
2019-01-29T10:40:24.930Z,29.32
2019-01-29T10:42:52.492Z,29.36
2019-01-29T10:45:20.804Z,29.34
2019-01-29T10:47:48.302Z,29.52
2019-01-29T10:50:23.097Z,29.58
2019-01-29T10:52:50.692Z,29.59
2019-01-29T10:55:18.200Z,29.45
2019-01-29T10:57:45.704Z,29.38
2019-01-29T11:00:20.992Z,29.41
2019-01-29T11:02:48.499Z,29.34
2019-01-29T11:05:17.178Z,29.34
2019-01-29T11:07:44.703Z,29.33
2019-01-29T11:10:16.883Z,29.37
2019-01-29T11:12:44.417Z,29.37
2019-01-29T11:15:13.803Z,29.35
2019-01-29T11:17:41.326Z,29.44
2019-01-29T11:20:13.168Z,29.35
2019-01-29T11:22:40.694Z,29.32
2019-01-29T11:25:10.071Z,29.33
2019-01-29T11:27:37.770Z,29.44
2019-01-29T11:30:06.913Z,29.35
2019-01-29T11:32:34.432Z,29.33
2019-01-29T11:35:01.943Z,29.33
2019-01-29T11:37:29.476Z,29.35
2019-01-29T11:39:56.999Z,29.37
2019-01-29T11:42:24.530Z,29.49
2019-01-29T11:44:52.042Z,29.36
2019-01-29T11:47:19.612Z,29.28
2019-01-29T11:49:47.138Z,29.31
2019-01-29T11:52:14.629Z,29.28
2019-01-29T11:54:42.164Z,29.30
2019-01-29T11:57:09.675Z,29.31
2019-01-29T11:59:37.182Z,29.66
2019-01-29T12:02:04.691Z,29.30
2019-01-29T12:04:32.232Z,29.26
2019-01-29T12:06:59.720Z,29.32
2019-01-29T12:09:27.249Z,29.28
2019-01-29T12:11:54.832Z,29.30
2019-01-29T12:14:22.339Z,29.29
2019-01-29T12:16:49.893Z,29.30
2019-01-29T12:19:17.389Z,29.33
2019-01-29T12:21:44.883Z,29.62
2019-01-29T12:24:12.419Z,29.59
2019-01-29T12:26:39.914Z,29.57
2019-01-29T12:29:07.445Z,29.55
2019-01-29T12:31:34.963Z,29.39
2019-01-29T12:34:02.474Z,29.33
2019-01-29T12:36:29.989Z,29.48
2019-01-29T12:38:57.501Z,29.61
2019-01-29T12:41:25.005Z,29.53
2019-01-29T12:43:52.531Z,29.60
2019-01-29T12:46:20.055Z,29.53
2019-01-29T12:48:47.567Z,29.57
2019-01-29T12:51:16.711Z,29.43
2019-01-29T12:53:44.236Z,29.59
2019-01-29T12:56:11.735Z,29.33
2019-01-29T12:58:39.306Z,29.60
2019-01-29T13:01:06.805Z,29.50
2019-01-29T13:03:34.355Z,29.53
2019-01-29T13:06:01.847Z,29.54
2019-01-29T13:08:29.402Z,29.39
2019-01-29T13:10:56.932Z,29.62
2019-01-29T13:13:24.431Z,29.60
2019-01-29T13:15:52.507Z,29.72
2019-01-29T13:18:20.033Z,29.62
2019-01-29T13:20:47.557Z,29.62
2019-01-29T13:23:15.111Z,29.58
2019-01-29T13:25:42.661Z,29.65
2019-01-29T13:28:10.165Z,29.68
2019-01-29T13:30:37.673Z,29.56
2019-01-29T13:33:06.491Z,29.57
2019-01-29T13:35:34.548Z,29.53
2019-01-29T13:38:02.063Z,29.41
2019-01-29T13:40:29.657Z,29.68
2019-01-29T13:42:57.159Z,29.54
2019-01-29T13:45:24.751Z,29.44
2019-01-29T13:47:52.282Z,29.55
2019-01-29T13:50:27.482Z,29.54
2019-01-29T13:52:54.999Z,29.52
2019-01-29T13:55:22.503Z,29.46
2019-01-29T13:57:50.037Z,29.50
2019-01-29T14:00:19.173Z,29.50
2019-01-29T14:02:46.686Z,29.41
2019-01-29T14:05:14.205Z,29.40
2019-01-29T14:07:41.718Z,29.41
2019-01-29T14:10:11.107Z,29.46
2019-01-29T14:12:38.615Z,29.39
2019-01-29T14:15:07.718Z,29.45
2019-01-29T14:17:35.254Z,29.44
2019-01-29T14:20:02.753Z,29.47
2019-01-29T14:22:30.267Z,29.48
2019-01-29T14:24:57.789Z,29.53
2019-01-29T14:27:25.405Z,29.46
2019-01-29T14:29:52.927Z,29.45
2019-01-29T14:32:20.641Z,29.41
2019-01-29T14:34:48.171Z,29.45
2019-01-29T14:37:15.659Z,29.47
2019-01-29T14:39:51.251Z,29.40
2019-01-29T14:42:18.750Z,29.49
2019-01-29T14:44:46.345Z,29.44
2019-01-29T14:47:13.850Z,29.50
2019-01-29T14:49:41.376Z,29.50
2019-01-29T14:52:08.899Z,29.48
2019-01-29T14:54:36.437Z,29.46
2019-01-29T14:57:04.017Z,29.41
2019-01-29T14:59:31.511Z,29.40
2019-01-29T15:01:59.058Z,29.42
2019-01-29T15:04:26.608Z,29.44
2019-01-29T15:06:54.182Z,29.46
2019-01-29T15:09:21.755Z,29.48
2019-01-29T15:11:49.252Z,29.42
2019-01-29T15:14:16.787Z,29.48
2019-01-29T15:16:46.053Z,29.43
2019-01-29T15:19:13.766Z,29.45
2019-01-29T15:21:41.374Z,29.35
2019-01-29T15:24:08.865Z,29.37
2019-01-29T15:26:36.407Z,29.40
2019-01-29T15:29:03.911Z,29.34
2019-01-29T15:31:31.424Z,29.29
2019-01-29T15:33:58.946Z,29.32
2019-01-29T15:36:26.462Z,29.30
2019-01-29T15:38:53.972Z,29.33
2019-01-29T15:41:21.471Z,29.32
2019-01-29T15:43:48.987Z,29.35
2019-01-29T15:46:16.499Z,29.30
2019-01-29T15:48:44.025Z,29.34
2019-01-29T15:51:11.522Z,29.33
2019-01-29T15:53:39.045Z,29.14
2019-01-29T15:56:06.627Z,29.14
2019-01-29T15:58:34.240Z,29.08
2019-01-29T16:01:01.744Z,29.17
2019-01-29T16:03:29.279Z,29.03
2019-01-29T16:05:56.786Z,29.01
2019-01-29T16:08:24.323Z,29.05
2019-01-29T16:10:51.836Z,28.95
2019-01-29T16:13:19.356Z,29.30
2019-01-29T16:15:46.888Z,29.24
2019-01-29T16:18:14.387Z,29.34
2019-01-29T16:20:41.900Z,29.66
2019-01-29T16:23:09.519Z,29.79
2019-01-29T16:25:37.280Z,29.90
2019-01-29T16:28:04.784Z,29.84
2019-01-29T16:30:35.843Z,29.98
2019-01-29T16:33:03.361Z,30.14
2019-01-29T16:35:32.591Z,30.18
2019-01-29T16:38:00.085Z,30.46
2019-01-29T16:40:28.683Z,30.46
2019-01-29T16:42:56.685Z,30.69
2019-01-29T16:45:25.695Z,30.07
2019-01-29T16:47:53.195Z,27.45
2019-01-29T16:50:21.862Z,26.37
2019-01-29T16:52:49.409Z,26.69
2019-01-29T16:55:18.073Z,27.00
2019-01-29T16:57:45.596Z,27.82
2019-01-29T17:00:14.762Z,27.52
2019-01-29T17:02:42.258Z,27.63
2019-01-29T17:05:10.048Z,27.30
2019-01-29T17:07:37.586Z,27.74
2019-01-29T17:10:09.116Z,27.13
2019-01-29T17:12:37.318Z,27.04
2019-01-29T17:15:17.195Z,27.21
2019-01-29T17:17:45.409Z,27.10
2019-01-29T17:20:22.048Z,27.17
2019-01-29T17:22:50.257Z,27.25
2019-01-29T17:25:18.526Z,27.06
2019-01-29T17:27:46.752Z,27.30
2019-01-29T17:30:27.039Z,27.48
2019-01-29T17:32:55.257Z,27.64
2019-01-29T17:35:23.485Z,27.64
2019-01-29T17:37:51.718Z,27.77
2019-01-29T17:40:21.365Z,27.86
2019-01-29T17:42:49.610Z,27.99
2019-01-29T17:45:21.090Z,28.19
2019-01-29T17:47:49.315Z,28.17
2019-01-29T17:50:20.647Z,28.36
2019-01-29T17:52:48.887Z,28.36
2019-01-29T17:55:17.632Z,28.49
2019-01-29T17:57:50.756Z,28.48
2019-01-29T18:00:19.058Z,28.64
2019-01-29T18:02:47.301Z,28.44
2019-01-29T18:05:15.515Z,28.43
2019-01-29T18:07:43.735Z,28.35
2019-01-29T18:10:14.879Z,28.07
2019-01-29T18:12:43.102Z,27.85
2019-01-29T18:15:14.891Z,27.54
2019-01-29T18:17:43.107Z,27.59
2019-01-29T18:20:11.412Z,27.66
2019-01-29T18:22:39.690Z,27.55
2019-01-29T18:25:10.378Z,27.69
2019-01-29T18:27:38.585Z,27.57
2019-01-29T18:30:10.059Z,27.55
2019-01-29T18:32:38.298Z,27.50
2019-01-29T18:35:08.266Z,27.20
2019-01-29T18:37:36.513Z,27.57
2019-01-29T18:40:07.976Z,27.52
2019-01-29T18:42:36.170Z,27.40
2019-01-29T18:45:06.145Z,27.50
2019-01-29T18:47:34.354Z,27.44
2019-01-29T18:50:02.557Z,27.38
2019-01-29T18:52:30.779Z,27.54
2019-01-29T18:54:58.975Z,27.53
2019-01-29T18:57:27.202Z,26.15
2019-01-29T18:59:55.404Z,26.47
2019-01-29T19:02:23.730Z,26.51
2019-01-29T19:04:51.904Z,26.61
2019-01-29T19:07:20.131Z,26.33
2019-01-29T19:09:48.324Z,26.51
2019-01-29T19:12:16.613Z,26.50
2019-01-29T19:14:44.859Z,26.49
2019-01-29T19:17:13.060Z,26.97
2019-01-29T19:19:41.279Z,27.97
2019-01-29T19:22:09.478Z,28.29
2019-01-29T19:24:37.713Z,28.48
2019-01-29T19:27:05.930Z,28.39
2019-01-29T19:29:34.171Z,28.36
2019-01-29T19:32:02.452Z,28.58
2019-01-29T19:34:30.694Z,28.41
2019-01-29T19:36:58.921Z,28.37
2019-01-29T19:39:27.138Z,27.93
2019-01-29T19:41:55.386Z,26.68
2019-01-29T19:44:23.577Z,25.97
2019-01-29T19:46:51.801Z,26.34
2019-01-29T19:49:20.027Z,26.49
2019-01-29T19:51:49.096Z,26.50
2019-01-29T19:54:17.411Z,26.60
2019-01-29T19:56:45.657Z,26.59
2019-01-29T19:59:13.851Z,26.78
2019-01-29T20:01:42.082Z,26.92
2019-01-29T20:04:10.323Z,26.70
2019-01-29T20:06:38.529Z,26.62
2019-01-29T20:09:09.413Z,26.49
2019-01-29T20:11:37.623Z,26.62
2019-01-29T20:14:05.934Z,26.72
2019-01-29T20:16:34.150Z,26.48
2019-01-29T20:19:02.387Z,26.89
2019-01-29T20:21:30.615Z,26.73
2019-01-29T20:23:58.865Z,26.77
2019-01-29T20:26:27.081Z,26.88
2019-01-29T20:28:55.317Z,27.02
2019-01-29T20:31:23.551Z,27.49
2019-01-29T20:33:51.772Z,27.10
2019-01-29T20:36:19.995Z,27.08
2019-01-29T20:38:48.274Z,26.82
2019-01-29T20:41:16.488Z,27.02
2019-01-29T20:43:44.691Z,27.22
2019-01-29T20:46:12.919Z,27.27
2019-01-29T20:48:41.125Z,27.56
2019-01-29T20:51:09.341Z,27.65
2019-01-29T20:53:37.537Z,27.68
2019-01-29T20:56:05.781Z,27.76
2019-01-29T20:58:34.002Z,28.08
2019-01-29T21:01:02.228Z,28.17
2019-01-29T21:03:30.430Z,27.92
2019-01-29T21:05:58.724Z,27.93
2019-01-29T21:08:26.914Z,28.14
2019-01-29T21:10:55.135Z,28.13
2019-01-29T21:13:23.358Z,28.08
2019-01-29T21:15:51.577Z,28.08
2019-01-29T21:18:19.789Z,28.15
2019-01-29T21:20:56.896Z,28.18
2019-01-29T21:23:17.935Z,28.71
2019-01-29T21:25:46.136Z,28.34
2019-01-29T21:28:14.366Z,28.39
2019-01-29T21:30:44.031Z,28.16
2019-01-29T21:33:12.385Z,28.23
2019-01-29T21:35:40.596Z,28.29
2019-01-29T21:38:08.796Z,28.35
2019-01-29T21:40:37.038Z,28.31
2019-01-29T21:43:05.227Z,28.34
2019-01-29T21:45:33.477Z,28.39
2019-01-29T21:48:01.737Z,28.38
2019-01-29T21:50:34.336Z,28.40
2019-01-29T21:53:02.547Z,28.43
2019-01-29T21:55:30.868Z,28.43
2019-01-29T21:57:59.496Z,28.48
2019-01-29T22:00:30.332Z,28.54
2019-01-29T22:02:58.561Z,28.73
2019-01-29T22:05:26.770Z,28.62
2019-01-29T22:07:57.499Z,28.70
2019-01-29T22:10:24.959Z,28.51
2019-01-29T22:12:53.160Z,28.50
2019-01-29T22:15:23.756Z,28.45
2019-01-29T22:17:51.984Z,28.31
2019-01-29T22:20:21.610Z,28.35
2019-01-29T22:22:49.818Z,28.40
2019-01-29T22:25:22.317Z,28.19
2019-01-29T22:27:50.502Z,28.45
2019-01-29T22:30:34.040Z,28.09
2019-01-29T22:33:02.231Z,28.13
2019-01-29T22:35:30.474Z,28.40
2019-01-29T22:37:58.713Z,28.39
2019-01-29T22:40:29.580Z,28.33
2019-01-29T22:42:57.960Z,28.33
2019-01-29T22:45:26.180Z,28.30
2019-01-29T22:47:54.406Z,28.49
2019-01-29T22:50:30.882Z,28.42
2019-01-29T22:52:59.116Z,28.44
2019-01-29T22:55:27.328Z,28.65
2019-01-29T22:57:55.537Z,28.52
2019-01-29T23:00:51.119Z,28.60
2019-01-29T23:03:25.595Z,28.51
2019-01-29T23:05:59.628Z,28.40
2019-01-29T23:08:27.858Z,28.70
2019-01-29T23:10:57.465Z,28.67
2019-01-29T23:13:25.755Z,28.62
2019-01-29T23:15:53.962Z,28.42
2019-01-29T23:18:22.188Z,28.37
2019-01-29T23:20:50.415Z,28.42
2019-01-29T23:23:18.627Z,28.42
2019-01-29T23:25:46.830Z,28.31
2019-01-29T23:28:15.052Z,28.26
2019-01-29T23:30:43.246Z,28.08
2019-01-29T23:33:11.475Z,28.00
2019-01-29T23:35:39.672Z,28.05
2019-01-29T23:38:07.881Z,28.08
2019-01-29T23:40:36.109Z,27.97
2019-01-29T23:43:04.310Z,28.06
2019-01-29T23:45:32.500Z,27.95
2019-01-29T23:48:00.703Z,27.90
2019-01-29T23:50:29.636Z,27.87
2019-01-29T23:52:57.852Z,27.66
2019-01-29T23:55:26.536Z,27.83
2019-01-29T23:57:54.732Z,27.69
